createdAt,value
2018-08-23T00:01:38.840Z,14.40
2018-08-23T00:04:11.728Z,12.40
2018-08-23T00:06:50.205Z,15.00
2018-08-23T00:09:21.664Z,13.40
2018-08-23T00:11:54.587Z,16.40
2018-08-23T00:14:26.184Z,12.80
2018-08-23T00:16:57.869Z,14.80
2018-08-23T00:19:29.457Z,14.60
2018-08-23T00:22:01.393Z,14.40
2018-08-23T00:24:32.826Z,13.20
2018-08-23T00:27:04.127Z,11.80
2018-08-23T00:29:35.660Z,14.60
2018-08-23T00:32:08.126Z,13.40
2018-08-23T00:34:40.601Z,14.00
2018-08-23T00:37:13.574Z,16.00
2018-08-23T00:39:45.235Z,15.00
2018-08-23T00:42:16.726Z,13.20
2018-08-23T00:45:01.471Z,15.60
2018-08-23T00:47:34.026Z,16.00
2018-08-23T00:50:05.676Z,14.40
2018-08-23T00:52:48.179Z,16.60
2018-08-23T00:55:28.684Z,16.40
2018-08-23T00:58:00.395Z,16.00
2018-08-23T01:00:32.126Z,17.60
2018-08-23T01:03:04.851Z,16.00
2018-08-23T01:05:39.273Z,18.20
2018-08-23T01:08:11.015Z,18.00
2018-08-23T01:10:42.811Z,17.20
2018-08-23T01:13:14.426Z,19.00
2018-08-23T01:15:50.836Z,17.80
2018-08-23T01:18:22.582Z,18.00
2018-08-23T01:20:54.564Z,16.40
2018-08-23T01:23:26.076Z,18.40
2018-08-23T01:25:57.841Z,19.20
2018-08-23T01:28:29.924Z,13.80
2018-08-23T01:31:32.842Z,16.20
2018-08-23T01:34:04.575Z,18.60
2018-08-23T01:36:35.962Z,17.40
2018-08-23T01:39:12.354Z,18.40
2018-08-23T01:41:44.066Z,16.20
2018-08-23T01:44:15.716Z,19.60
2018-08-23T01:46:47.348Z,19.40
2018-08-23T01:49:19.504Z,21.20
2018-08-23T01:51:51.285Z,21.40
2018-08-23T01:54:22.971Z,21.40
2018-08-23T01:56:54.565Z,20.20
2018-08-23T01:59:26.220Z,20.00
2018-08-23T02:02:00.877Z,22.20
2018-08-23T02:04:32.423Z,21.20
2018-08-23T02:07:03.857Z,19.80
2018-08-23T02:09:35.508Z,19.20
2018-08-23T02:12:07.427Z,18.80
2018-08-23T02:14:43.988Z,19.40
2018-08-23T02:17:15.792Z,19.80
2018-08-23T02:19:49.694Z,19.60
2018-08-23T02:22:21.378Z,19.40
2018-08-23T02:24:52.774Z,22.20
2018-08-23T02:27:24.595Z,23.20
2018-08-23T02:29:57.504Z,24.60
2018-08-23T02:32:29.154Z,21.60
2018-08-23T02:35:07.538Z,23.20
2018-08-23T02:37:38.950Z,24.00
2018-08-23T02:40:10.566Z,22.40
2018-08-23T02:42:42.546Z,23.40
2018-08-23T02:45:16.214Z,23.20
2018-08-23T02:47:47.999Z,23.00
2018-08-23T02:50:19.611Z,23.00
2018-08-23T02:52:51.375Z,23.20
2018-08-23T02:55:22.943Z,22.20
2018-08-23T02:58:01.697Z,22.20
2018-08-23T03:00:37.810Z,21.80
2018-08-23T03:03:09.905Z,21.20
2018-08-23T03:05:42.057Z,21.20
2018-08-23T03:08:13.431Z,20.20
2018-08-23T03:10:45.156Z,20.60
2018-08-23T03:13:17.474Z,20.20
2018-08-23T03:15:48.808Z,19.60
2018-08-23T03:18:20.693Z,20.20
2018-08-23T03:20:56.931Z,19.20
2018-08-23T03:23:28.092Z,19.20
2018-08-23T03:25:59.681Z,19.00
2018-08-23T03:28:32.316Z,18.00
2018-08-23T03:31:05.271Z,18.60
2018-08-23T03:33:36.586Z,17.40
2018-08-23T03:36:07.128Z,16.80
2018-08-23T03:38:38.773Z,17.80
2018-08-23T03:41:10.181Z,17.20
2018-08-23T03:43:41.816Z,16.20
2018-08-23T03:46:13.337Z,16.40
2018-08-23T03:48:47.121Z,15.60
2018-08-23T03:51:18.671Z,16.20
2018-08-23T03:53:54.717Z,17.40
2018-08-23T03:56:26.299Z,14.00
2018-08-23T03:58:57.711Z,18.80
2018-08-23T04:01:29.402Z,16.20
2018-08-23T04:04:01.226Z,18.60
2018-08-23T04:06:35.897Z,16.20
2018-08-23T04:09:09.290Z,18.00
2018-08-23T04:11:40.909Z,20.20
2018-08-23T04:14:12.370Z,19.40
2018-08-23T04:16:44.009Z,15.60
2018-08-23T04:19:15.456Z,19.00
2018-08-23T04:21:47.075Z,15.80
2018-08-23T04:24:18.501Z,15.40
2018-08-23T04:26:50.006Z,16.40
2018-08-23T04:29:35.305Z,17.00
2018-08-23T04:32:07.716Z,15.80
2018-08-23T04:34:40.197Z,12.80
2018-08-23T04:37:11.587Z,16.00
2018-08-23T04:39:48.519Z,13.40
2018-08-23T04:42:19.806Z,14.00
2018-08-23T04:44:52.350Z,14.00
2018-08-23T04:47:24.483Z,14.80
2018-08-23T04:49:56.281Z,13.20
2018-08-23T04:52:27.922Z,15.80
2018-08-23T04:54:59.508Z,15.00
2018-08-23T04:57:31.357Z,13.40
2018-08-23T05:00:03.466Z,12.20
2018-08-23T05:02:35.025Z,12.20
2018-08-23T05:05:06.849Z,13.60
2018-08-23T05:07:38.399Z,12.40
2018-08-23T05:10:10.236Z,12.80
2018-08-23T05:12:41.750Z,15.00
2018-08-23T05:15:13.412Z,15.20
2018-08-23T05:17:44.829Z,13.00
2018-08-23T05:20:16.231Z,14.80
2018-08-23T05:22:53.311Z,16.00
2018-08-23T05:25:26.996Z,15.00
2018-08-23T05:28:12.715Z,13.40
2018-08-23T05:30:46.595Z,17.80
2018-08-23T05:33:20.048Z,17.20
2018-08-23T05:35:52.053Z,17.60
2018-08-23T05:38:23.720Z,17.80
2018-08-23T05:41:02.091Z,14.20
2018-08-23T05:43:34.356Z,15.60
2018-08-23T05:46:05.987Z,16.20
2018-08-23T05:48:37.921Z,16.60
2018-08-23T05:51:14.052Z,14.80
2018-08-23T05:53:48.677Z,16.80
2018-08-23T05:56:22.103Z,15.20
2018-08-23T05:59:00.526Z,14.60
2018-08-23T06:01:32.926Z,14.00
2018-08-23T06:04:04.628Z,13.80
2018-08-23T06:06:36.245Z,12.80
2018-08-23T06:09:17.071Z,15.00
2018-08-23T06:11:48.400Z,13.60
2018-08-23T06:14:19.912Z,14.40
2018-08-23T06:16:58.455Z,14.00
2018-08-23T06:19:30.583Z,13.60
2018-08-23T06:22:02.305Z,15.00
2018-08-23T06:24:33.864Z,12.20
2018-08-23T06:27:05.492Z,14.00
2018-08-23T06:29:37.085Z,15.00
2018-08-23T06:32:10.279Z,11.20
2018-08-23T06:34:58.108Z,16.00
2018-08-23T06:37:30.151Z,16.60
2018-08-23T06:40:01.963Z,14.80
2018-08-23T06:42:46.780Z,16.80
2018-08-23T06:45:18.455Z,14.80
2018-08-23T06:47:54.864Z,19.60
2018-08-23T06:51:28.932Z,17.00
2018-08-23T06:54:02.935Z,15.60
2018-08-23T06:56:36.836Z,20.00
2018-08-23T06:59:09.661Z,18.20
2018-08-23T07:01:45.893Z,17.80
2018-08-23T07:04:17.608Z,16.40
2018-08-23T07:06:49.377Z,19.40
2018-08-23T07:09:21.144Z,19.40
2018-08-23T07:11:53.103Z,17.20
2018-08-23T07:14:25.005Z,18.20
2018-08-23T07:16:57.746Z,16.40
2018-08-23T07:19:33.025Z,17.00
2018-08-23T07:22:05.327Z,19.40
2018-08-23T07:24:45.676Z,20.20
2018-08-23T07:27:18.173Z,18.00
2018-08-23T07:29:50.666Z,17.20
2018-08-23T07:32:24.158Z,18.00
2018-08-23T07:35:19.187Z,17.00
2018-08-23T07:37:52.900Z,18.40
2018-08-23T07:40:25.466Z,19.80
2018-08-23T07:42:56.927Z,18.20
2018-08-23T07:45:28.829Z,17.80
2018-08-23T07:48:00.545Z,19.00
2018-08-23T07:50:32.108Z,16.80
2018-08-23T07:53:03.826Z,17.80
2018-08-23T07:55:35.738Z,19.00
2018-08-23T08:00:40.381Z,17.20
2018-08-23T08:03:13.462Z,19.60
2018-08-23T08:05:46.276Z,18.40
2018-08-23T08:08:17.958Z,19.00
2018-08-23T08:10:49.347Z,17.00
2018-08-23T08:13:20.958Z,18.80
2018-08-23T08:15:52.671Z,19.60
2018-08-23T08:18:25.136Z,18.80
2018-08-23T08:21:03.726Z,18.40
2018-08-23T08:23:35.393Z,19.80
2018-08-23T08:26:07.058Z,17.60
2018-08-23T08:28:39.783Z,18.60
2018-08-23T08:31:11.266Z,19.20
2018-08-23T08:33:42.763Z,19.40
2018-08-23T08:36:14.229Z,18.40
2018-08-23T08:38:45.850Z,20.00
2018-08-23T08:41:17.311Z,19.00
2018-08-23T08:43:49.020Z,19.60
2018-08-23T08:46:21.041Z,18.80
2018-08-23T08:48:52.733Z,20.00
2018-08-23T08:51:28.836Z,19.00
2018-08-23T08:54:01.776Z,20.00
2018-08-23T08:56:38.224Z,18.00
2018-08-23T08:59:09.872Z,19.20
2018-08-23T09:01:41.744Z,20.00
2018-08-23T09:04:17.631Z,20.00
2018-08-23T09:06:49.053Z,18.40
2018-08-23T09:09:32.300Z,19.60
2018-08-23T09:12:06.201Z,20.00
2018-08-23T09:14:38.716Z,18.60
2018-08-23T09:17:24.485Z,18.20
2018-08-23T09:20:17.229Z,18.60
2018-08-23T09:22:50.681Z,19.40
2018-08-23T09:25:35.107Z,15.60
2018-08-23T09:28:06.904Z,18.00
2018-08-23T09:30:38.514Z,18.80
2018-08-23T09:33:15.472Z,15.80
2018-08-23T09:35:47.143Z,19.60
2018-08-23T09:38:18.641Z,18.40
2018-08-23T09:40:50.345Z,18.40
2018-08-23T09:43:22.103Z,18.60
2018-08-23T09:45:55.229Z,20.40
2018-08-23T09:48:27.361Z,18.60
2018-08-23T09:50:59.093Z,17.20
2018-08-23T09:53:30.849Z,20.00
2018-08-23T09:56:02.322Z,20.20
2018-08-23T09:58:38.772Z,19.40
2018-08-23T10:01:14.962Z,18.80
2018-08-23T10:03:51.275Z,19.40
2018-08-23T10:06:23.850Z,20.00
2018-08-23T10:09:09.257Z,19.20
2018-08-23T10:13:48.808Z,17.40
2018-08-23T10:16:25.434Z,20.20
2018-08-23T10:19:02.950Z,19.60
2018-08-23T10:21:39.341Z,22.00
2018-08-23T10:24:18.834Z,20.00
2018-08-23T10:26:50.464Z,19.20
2018-08-23T10:29:22.083Z,20.00
2018-08-23T10:31:53.743Z,20.20
2018-08-23T10:34:25.426Z,19.80
2018-08-23T10:36:57.109Z,17.00
2018-08-23T10:39:28.635Z,19.20
2018-08-23T10:42:00.104Z,19.20
2018-08-23T10:44:31.822Z,17.20
2018-08-23T10:47:03.599Z,17.20
2018-08-23T10:49:35.258Z,18.80
2018-08-23T10:52:07.044Z,20.00
2018-08-23T10:54:38.516Z,18.40
2018-08-23T10:57:14.081Z,18.00
2018-08-23T10:59:46.060Z,18.40
2018-08-23T11:02:17.642Z,15.20
2018-08-23T11:04:49.089Z,15.80
2018-08-23T11:07:25.008Z,16.00
2018-08-23T11:10:01.371Z,14.80
2018-08-23T11:12:37.743Z,15.20
2018-08-23T11:15:13.881Z,12.20
2018-08-23T11:17:50.084Z,13.60
2018-08-23T11:20:26.278Z,12.80
2018-08-23T11:22:58.057Z,14.80
2018-08-23T11:25:29.570Z,14.80
2018-08-23T11:28:05.519Z,10.80
2018-08-23T11:30:36.995Z,10.00
2018-08-23T11:33:10.557Z,12.00
2018-08-23T11:35:42.101Z,12.20
2018-08-23T11:38:14.368Z,10.00
2018-08-23T11:40:46.054Z,9.20
2018-08-23T11:43:17.720Z,9.80
2018-08-23T11:45:53.722Z,8.00
2018-08-23T11:48:25.528Z,8.00
2018-08-23T11:50:56.784Z,7.60
2018-08-23T11:53:28.428Z,7.00
2018-08-23T11:55:59.627Z,6.20
2018-08-23T11:58:31.844Z,7.80
2018-08-23T12:01:10.582Z,8.60
2018-08-23T12:03:43.156Z,9.00
2018-08-23T12:06:15.850Z,10.00
2018-08-23T12:08:47.558Z,10.00
2018-08-23T12:11:19.614Z,9.40
2018-08-23T12:13:51.786Z,10.00
2018-08-23T12:16:23.393Z,10.40
2018-08-23T12:18:55.102Z,11.60
2018-08-23T12:21:26.400Z,12.40
2018-08-23T12:23:57.920Z,13.20
2018-08-23T12:26:29.620Z,11.60
2018-08-23T12:29:06.017Z,11.00
2018-08-23T12:31:37.915Z,13.20
2018-08-23T12:34:10.810Z,12.80
2018-08-23T12:36:46.934Z,14.00
2018-08-23T12:39:23.243Z,14.00
2018-08-23T12:41:59.378Z,15.00
2018-08-23T12:44:30.618Z,15.40
2018-08-23T12:47:05.402Z,15.80
2018-08-23T12:49:37.170Z,16.00
2018-08-23T12:52:08.996Z,13.80
2018-08-23T12:54:40.314Z,15.80
2018-08-23T12:57:11.909Z,16.00
2018-08-23T12:59:43.586Z,15.00
2018-08-23T13:02:16.397Z,15.60
2018-08-23T13:04:48.244Z,14.00
2018-08-23T13:07:20.131Z,15.20
2018-08-23T13:09:51.833Z,16.60
2018-08-23T13:12:23.299Z,16.40
2018-08-23T13:14:55.404Z,14.40
2018-08-23T13:17:26.950Z,16.00
2018-08-23T13:19:58.823Z,15.40
2018-08-23T13:22:35.108Z,15.00
2018-08-23T13:25:08.327Z,13.60
2018-08-23T13:27:40.102Z,15.40
2018-08-23T13:30:11.865Z,15.80
2018-08-23T13:32:43.369Z,14.20
2018-08-23T13:35:15.426Z,15.20
2018-08-23T13:37:46.915Z,14.80
2018-08-23T13:40:19.521Z,17.00
2018-08-23T13:42:51.127Z,15.20
2018-08-23T13:45:22.973Z,18.00
2018-08-23T13:47:54.611Z,19.00
2018-08-23T13:50:26.197Z,18.20
2018-08-23T13:52:57.632Z,17.40
2018-08-23T13:55:29.247Z,18.20
2018-08-23T13:58:00.692Z,16.00
2018-08-23T14:00:36.939Z,15.60
2018-08-23T14:03:09.674Z,14.00
2018-08-23T14:05:42.258Z,14.20
2018-08-23T14:08:13.805Z,13.80
2018-08-23T14:10:45.598Z,13.20
2018-08-23T14:13:17.269Z,13.40
2018-08-23T14:15:53.709Z,15.20
2018-08-23T14:18:25.411Z,13.20
2018-08-23T14:20:57.123Z,13.60
2018-08-23T14:23:28.435Z,13.60
2018-08-23T14:25:59.976Z,11.00
2018-08-23T14:28:31.641Z,12.80
2018-08-23T14:31:03.123Z,11.60
2018-08-23T14:33:34.741Z,11.80
2018-08-23T14:36:06.159Z,12.80
2018-08-23T14:38:37.545Z,12.00
2018-08-23T14:41:09.186Z,13.80
2018-08-23T14:43:40.745Z,12.80
2018-08-23T14:46:16.920Z,14.40
2018-08-23T14:48:48.829Z,11.60
2018-08-23T14:51:20.916Z,13.80
2018-08-23T14:53:52.253Z,13.80
2018-08-23T14:56:28.605Z,15.80
2018-08-23T14:59:00.293Z,17.20
2018-08-23T15:01:31.984Z,16.00
2018-08-23T15:04:04.282Z,14.80
2018-08-23T15:06:35.804Z,16.40
2018-08-23T15:09:08.489Z,16.40
2018-08-23T15:11:40.422Z,18.60
2018-08-23T15:14:12.156Z,17.00
2018-08-23T15:16:43.767Z,17.40
2018-08-23T15:19:15.485Z,17.80
2018-08-23T15:21:47.110Z,19.40
2018-08-23T15:24:19.071Z,19.40
2018-08-23T15:26:51.089Z,20.20
2018-08-23T15:29:22.426Z,20.00
2018-08-23T15:31:54.164Z,20.00
2018-08-23T15:34:25.804Z,20.00
2018-08-23T15:36:57.417Z,20.20
2018-08-23T15:39:29.184Z,20.00
2018-08-23T15:42:00.923Z,20.20
2018-08-23T15:44:32.266Z,20.00
2018-08-23T15:47:03.851Z,22.20
2018-08-23T15:49:35.732Z,23.00
2018-08-23T15:52:07.170Z,22.00
2018-08-23T15:54:38.654Z,22.00
2018-08-23T15:57:10.425Z,22.00
2018-08-23T15:59:41.931Z,23.00
2018-08-23T16:02:13.846Z,22.80
2018-08-23T16:04:46.281Z,22.00
2018-08-23T16:07:17.912Z,22.80
2018-08-23T16:09:49.661Z,22.00
2018-08-23T16:12:21.202Z,22.20
2018-08-23T16:14:52.318Z,24.20
2018-08-23T16:17:28.564Z,22.80
2018-08-23T16:20:04.661Z,23.20
2018-08-23T16:22:36.506Z,23.00
2018-08-23T16:25:08.054Z,23.00
2018-08-23T16:27:39.809Z,23.20
2018-08-23T16:30:11.326Z,22.60
2018-08-23T16:32:42.596Z,22.00
2018-08-23T16:35:13.994Z,23.00
2018-08-23T16:37:45.691Z,22.00
2018-08-23T16:40:22.007Z,23.00
2018-08-23T16:42:53.788Z,23.40
2018-08-23T16:45:25.383Z,22.40
2018-08-23T16:47:56.837Z,23.00
2018-08-23T16:50:29.361Z,23.00
2018-08-23T16:53:00.831Z,22.40
2018-08-23T16:55:32.482Z,22.20
2018-08-23T16:58:04.368Z,23.80
2018-08-23T17:00:35.960Z,23.00
2018-08-23T17:03:07.814Z,23.80
2018-08-23T17:05:40.292Z,22.80
2018-08-23T17:08:12.278Z,22.20
2018-08-23T17:10:44.051Z,22.40
2018-08-23T17:13:20.615Z,22.80
2018-08-23T17:15:56.642Z,21.00
2018-08-23T17:18:28.370Z,23.00
2018-08-23T17:21:00.025Z,22.80
2018-08-23T17:23:31.824Z,22.60
2018-08-23T17:26:03.296Z,22.20
2018-08-23T17:28:34.814Z,22.20
2018-08-23T17:31:06.494Z,22.00
2018-08-23T17:33:38.103Z,22.60
2018-08-23T17:36:09.895Z,22.80
2018-08-23T17:38:41.771Z,22.00
2018-08-23T17:41:13.253Z,22.00
2018-08-23T17:43:44.881Z,21.20
2018-08-23T17:46:16.828Z,23.00
2018-08-23T17:48:48.534Z,22.00
2018-08-23T17:51:20.078Z,20.80
2018-08-23T17:53:51.961Z,22.00
2018-08-23T17:56:23.521Z,21.20
2018-08-23T17:58:55.194Z,23.00
2018-08-23T18:01:26.977Z,22.00
2018-08-23T18:03:59.570Z,22.20
2018-08-23T18:06:30.827Z,21.00
2018-08-23T18:09:02.604Z,22.00
2018-08-23T18:11:33.945Z,20.60
2018-08-23T18:14:05.593Z,23.00
2018-08-23T18:16:42.276Z,22.40
2018-08-23T18:19:14.037Z,21.20
2018-08-23T18:21:45.668Z,21.40
2018-08-23T18:24:22.423Z,21.40
2018-08-23T18:26:55.922Z,20.60
2018-08-23T18:29:30.204Z,22.00
2018-08-23T18:32:03.961Z,21.80
2018-08-23T18:34:36.381Z,20.00
2018-08-23T18:37:08.122Z,20.00
2018-08-23T18:39:40.247Z,21.00
2018-08-23T18:42:11.877Z,20.00
2018-08-23T18:44:43.430Z,20.20
2018-08-23T18:47:15.488Z,21.40
2018-08-23T18:49:47.222Z,21.20
2018-08-23T18:52:19.064Z,19.00
2018-08-23T18:54:50.724Z,21.40
2018-08-23T18:57:22.549Z,19.80
2018-08-23T18:59:54.384Z,20.20
2018-08-23T19:02:25.990Z,19.00
2018-08-23T19:04:58.006Z,20.80
2018-08-23T19:07:34.344Z,19.80
2018-08-23T19:10:06.093Z,18.60
2018-08-23T19:12:37.786Z,20.00
2018-08-23T19:15:10.024Z,21.20
2018-08-23T19:17:43.911Z,19.40
2018-08-23T19:20:15.836Z,20.00
2018-08-23T19:22:47.640Z,20.20
2018-08-23T19:25:19.283Z,19.60
2018-08-23T19:27:51.078Z,20.00
2018-08-23T19:30:22.867Z,19.00
2018-08-23T19:32:54.463Z,19.80
2018-08-23T19:35:26.290Z,19.60
2018-08-23T19:37:58.145Z,19.60
2018-08-23T19:40:31.580Z,20.20
2018-08-23T19:43:03.386Z,13.20
2018-08-23T19:45:39.644Z,19.40
2018-08-23T19:48:11.206Z,20.00
2018-08-23T19:50:43.043Z,20.20
2018-08-23T19:53:14.868Z,17.80
2018-08-23T19:55:46.220Z,20.00
2018-08-23T19:58:18.710Z,19.40
2018-08-23T20:00:50.764Z,19.00
2018-08-23T20:03:22.455Z,19.40
2018-08-23T20:05:54.365Z,17.60
2018-08-23T20:08:26.010Z,18.60
2018-08-23T20:10:58.373Z,17.60
2018-08-23T20:13:30.932Z,15.80
2018-08-23T20:16:02.700Z,19.00
2018-08-23T20:18:34.841Z,20.00
2018-08-23T20:21:06.858Z,17.20
2018-08-23T20:23:38.463Z,19.40
2018-08-23T20:26:09.638Z,19.60
2018-08-23T20:28:41.843Z,20.80
2018-08-23T20:31:14.844Z,19.20
2018-08-23T20:33:46.467Z,19.20
2018-08-23T20:36:19.635Z,18.00
2018-08-23T20:38:52.549Z,20.00
2018-08-23T20:41:26.005Z,19.60
2018-08-23T20:43:57.523Z,20.00
2018-08-23T20:46:29.393Z,17.40
2018-08-23T20:49:01.714Z,18.60
2018-08-23T20:51:33.617Z,17.20
2018-08-23T20:54:05.666Z,20.00
2018-08-23T20:56:37.430Z,17.00
2018-08-23T20:59:09.607Z,20.20
2018-08-23T21:01:41.245Z,19.20
2018-08-23T21:04:12.956Z,19.00
2018-08-23T21:06:45.314Z,17.40
2018-08-23T21:09:17.059Z,20.20
2018-08-23T21:11:48.500Z,20.20
2018-08-23T21:14:20.181Z,18.80
2018-08-23T21:16:51.979Z,19.80
2018-08-23T21:19:23.474Z,19.00
2018-08-23T21:21:54.963Z,18.80
2018-08-23T21:24:26.644Z,19.60
2018-08-23T21:26:58.147Z,20.00
2018-08-23T21:29:29.773Z,20.60
2018-08-23T21:32:01.294Z,17.00
2018-08-23T21:34:32.719Z,18.80
2018-08-23T21:37:04.640Z,20.00
2018-08-23T21:39:36.285Z,18.60
2018-08-23T21:42:07.627Z,20.00
2018-08-23T21:44:39.130Z,19.20
2018-08-23T21:47:10.735Z,19.40
2018-08-23T21:49:42.452Z,19.00
2018-08-23T21:52:14.171Z,15.80
2018-08-23T21:54:45.813Z,19.40
2018-08-23T21:57:17.848Z,17.00
2018-08-23T21:59:49.913Z,20.00
2018-08-23T22:02:21.633Z,19.00
2018-08-23T22:04:55.097Z,17.80
2018-08-23T22:07:26.915Z,16.60
2018-08-23T22:09:58.620Z,19.20
2018-08-23T22:12:30.398Z,18.00
2018-08-23T22:15:02.796Z,19.80
2018-08-23T22:17:34.705Z,18.40
2018-08-23T22:20:06.506Z,17.00
2018-08-23T22:22:38.205Z,17.20
2018-08-23T22:25:09.502Z,15.00
2018-08-23T22:27:41.018Z,18.00
2018-08-23T22:30:12.676Z,16.20
2018-08-23T22:32:44.434Z,18.00
2018-08-23T22:35:16.330Z,17.00
2018-08-23T22:37:48.058Z,16.40
2018-08-23T22:40:19.685Z,17.60
2018-08-23T22:42:51.597Z,19.00
2018-08-23T22:45:23.284Z,13.60
2018-08-23T22:47:55.413Z,15.00
2018-08-23T22:50:27.283Z,17.00
2018-08-23T22:52:59.781Z,17.80
2018-08-23T22:55:31.518Z,17.00
2018-08-23T22:58:03.627Z,16.40
2018-08-23T23:00:41.545Z,15.00
2018-08-23T23:03:18.571Z,17.00
2018-08-23T23:05:50.290Z,15.40
2018-08-23T23:08:22.064Z,14.80
2018-08-23T23:10:55.230Z,17.80
2018-08-23T23:13:27.111Z,15.80
2018-08-23T23:15:59.095Z,16.00
2018-08-23T23:18:31.759Z,17.00
2018-08-23T23:21:03.427Z,16.00
2018-08-23T23:23:35.168Z,16.20
2018-08-23T23:26:07.263Z,16.20
2018-08-23T23:28:38.992Z,16.00
2018-08-23T23:31:10.928Z,15.60
2018-08-23T23:33:42.624Z,13.00
2018-08-23T23:36:14.271Z,16.20
2018-08-23T23:38:46.135Z,15.40
2018-08-23T23:41:18.039Z,14.40
2018-08-23T23:43:49.883Z,14.80
2018-08-23T23:46:21.281Z,15.20
2018-08-23T23:48:52.961Z,16.00
2018-08-23T23:51:24.949Z,14.20
2018-08-23T23:53:56.806Z,14.80
2018-08-23T23:56:28.814Z,16.00
2018-08-23T23:59:00.726Z,13.80
